sensor_id;sensor_type;location;lat;lon;timestamp;pressure;altitude;pressure_sealevel;temperature;humidity
71239;BME280;61342;51.442;7.370;2023-03-14T00:00:29;97560.97;;;13.07;81.14
71239;BME280;61342;51.442;7.370;2023-03-14T00:01:30;97581.78;;;13.06;81.56
71239;BME280;61342;51.442;7.370;2023-03-14T00:02:30;97592.56;;;13.05;81.59
71239;BME280;61342;51.442;7.370;2023-03-14T00:03:30;97597.56;;;13.05;81.17
71239;BME280;61342;51.442;7.370;2023-03-14T00:04:31;97581.47;;;13.02;81.62
71239;BME280;61342;51.442;7.370;2023-03-14T00:05:31;97588.91;;;13.05;81.40
71239;BME280;61342;51.442;7.370;2023-03-14T00:06:31;97567.06;;;13.02;81.13
71239;BME280;61342;51.442;7.370;2023-03-14T00:07:37;97576.47;;;13.02;81.39
71239;BME280;61342;51.442;7.370;2023-03-14T00:08:38;97570.69;;;13.02;81.38
71239;BME280;61342;51.442;7.370;2023-03-14T00:09:42;97561.28;;;13.02;81.31
71239;BME280;61342;51.442;7.370;2023-03-14T00:10:43;97562.03;;;13.02;81.09
71239;BME280;61342;51.442;7.370;2023-03-14T00:11:43;97556.13;;;13.00;81.13
71239;BME280;61342;51.442;7.370;2023-03-14T00:12:44;97551.88;;;13.01;81.17
71239;BME280;61342;51.442;7.370;2023-03-14T00:13:48;97545.97;;;12.99;81.55
71239;BME280;61342;51.442;7.370;2023-03-14T00:14:49;97542.94;;;12.97;81.57
71239;BME280;61342;51.442;7.370;2023-03-14T00:15:49;97538.53;;;12.96;81.22
71239;BME280;61342;51.442;7.370;2023-03-14T00:16:50;97540.81;;;12.98;81.19
71239;BME280;61342;51.442;7.370;2023-03-14T00:17:50;97534.16;;;12.95;81.11
71239;BME280;61342;51.442;7.370;2023-03-14T00:18:50;97530.50;;;12.95;81.40
71239;BME280;61342;51.442;7.370;2023-03-14T00:19:51;97531.25;;;12.95;81.46
71239;BME280;61342;51.442;7.370;2023-03-14T00:20:53;97525.38;;;12.93;81.48
71239;BME280;61342;51.442;7.370;2023-03-14T00:21:54;97534.88;;;12.96;81.38
71239;BME280;61342;51.442;7.370;2023-03-14T00:22:54;97521.09;;;12.94;81.55
71239;BME280;61342;51.442;7.370;2023-03-14T00:23:54;97526.72;;;12.92;81.21
71239;BME280;61342;51.442;7.370;2023-03-14T00:24:55;97517.47;;;12.94;81.24
71239;BME280;61342;51.442;7.370;2023-03-14T00:26:06;97518.06;;;12.92;81.08
71239;BME280;61342;51.442;7.370;2023-03-14T00:27:06;97519.59;;;12.93;81.25
71239;BME280;61342;51.442;7.370;2023-03-14T00:28:06;97523.06;;;12.92;81.44
71239;BME280;61342;51.442;7.370;2023-03-14T00:29:07;97515.53;;;12.87;81.32
71239;BME280;61342;51.442;7.370;2023-03-14T00:30:08;97523.84;;;12.92;81.20
71239;BME280;61342;51.442;7.370;2023-03-14T00:31:11;97534.59;;;12.92;81.40
71239;BME280;61342;51.442;7.370;2023-03-14T00:32:12;97524.75;;;12.85;81.21
71239;BME280;61342;51.442;7.370;2023-03-14T00:33:12;97542.06;;;12.85;81.20
71239;BME280;61342;51.442;7.370;2023-03-14T00:34:13;97559.50;;;12.87;81.11
71239;BME280;61342;51.442;7.370;2023-03-14T00:35:13;97566.63;;;12.86;81.15
71239;BME280;61342;51.442;7.370;2023-03-14T00:36:15;97570.28;;;12.87;81.26
71239;BME280;61342;51.442;7.370;2023-03-14T00:37:16;97573.19;;;12.87;81.15
71239;BME280;61342;51.442;7.370;2023-03-14T00:38:17;97575.28;;;12.86;81.28
71239;BME280;61342;51.442;7.370;2023-03-14T00:39:17;97581.06;;;12.86;81.14
71239;BME280;61342;51.442;7.370;2023-03-14T00:40:17;97581.84;;;12.87;81.37
71239;BME280;61342;51.442;7.370;2023-03-14T00:41:22;97581.06;;;12.86;81.23
71239;BME280;61342;51.442;7.370;2023-03-14T00:42:22;97586.81;;;12.86;81.46
71239;BME280;61342;51.442;7.370;2023-03-14T00:43:23;97576.50;;;12.83;81.49
71239;BME280;61342;51.442;7.370;2023-03-14T00:44:23;97591.84;;;12.86;81.18
71239;BME280;61342;51.442;7.370;2023-03-14T00:45:24;97581.06;;;12.86;81.41
71239;BME280;61342;51.442;7.370;2023-03-14T00:46:25;97576.06;;;12.87;81.19
71239;BME280;61342;51.442;7.370;2023-03-14T00:47:25;97581.50;;;12.83;81.24
71239;BME280;61342;51.442;7.370;2023-03-14T00:48:26;97575.28;;;12.86;81.27
71239;BME280;61342;51.442;7.370;2023-03-14T00:49:27;97571.66;;;12.86;81.29
71239;BME280;61342;51.442;7.370;2023-03-14T00:50:27;97566.47;;;12.84;81.18
71239;BME280;61342;51.442;7.370;2023-03-14T00:51:28;97565.69;;;12.84;80.92
71239;BME280;61342;51.442;7.370;2023-03-14T00:52:28;97563.75;;;12.86;81.42
71239;BME280;61342;51.442;7.370;2023-03-14T00:53:28;97555.09;;;12.86;81.20
71239;BME280;61342;51.442;7.370;2023-03-14T00:54:29;97550.13;;;12.87;81.45
71239;BME280;61342;51.442;7.370;2023-03-14T00:55:29;97539.16;;;12.85;81.17
71239;BME280;61342;51.442;7.370;2023-03-14T00:56:30;97547.97;;;12.87;81.40
71239;BME280;61342;51.442;7.370;2023-03-14T00:57:31;97548.88;;;12.90;81.50
71239;BME280;61342;51.442;7.370;2023-03-14T00:58:31;97538.59;;;12.87;81.40
71239;BME280;61342;51.442;7.370;2023-03-14T00:59:31;97540.69;;;12.86;81.28
71239;BME280;61342;51.442;7.370;2023-03-14T01:00:32;97559.63;;;12.89;81.25
71239;BME280;61342;51.442;7.370;2023-03-14T01:01:33;97547.38;;;12.89;81.44
71239;BME280;61342;51.442;7.370;2023-03-14T01:02:33;97538.59;;;12.87;81.00
71239;BME280;61342;51.442;7.370;2023-03-14T01:03:33;97539.47;;;12.89;81.27
71239;BME280;61342;51.442;7.370;2023-03-14T01:04:34;97539.47;;;12.89;81.30
71239;BME280;61342;51.442;7.370;2023-03-14T01:05:35;97542.97;;;12.88;81.41
71239;BME280;61342;51.442;7.370;2023-03-14T01:06:35;97539.47;;;12.89;81.16
71239;BME280;61342;51.442;7.370;2023-03-14T01:07:36;97538.72;;;12.89;81.03
71239;BME280;61342;51.442;7.370;2023-03-14T01:08:37;97537.34;;;12.90;81.30
71239;BME280;61342;51.442;7.370;2023-03-14T01:09:37;97543.13;;;12.90;81.31
71239;BME280;61342;51.442;7.370;2023-03-14T01:10:39;97555.41;;;12.90;81.18
71239;BME280;61342;51.442;7.370;2023-03-14T01:11:40;97571.19;;;12.89;81.49
71239;BME280;61342;51.442;7.370;2023-03-14T01:12:40;97576.34;;;12.91;81.60
71239;BME280;61342;51.442;7.370;2023-03-14T01:13:41;97589.38;;;12.92;81.86
71239;BME280;61342;51.442;7.370;2023-03-14T01:14:41;97586.50;;;12.92;82.26
71239;BME280;61342;51.442;7.370;2023-03-14T01:15:42;97587.88;;;12.91;82.66
71239;BME280;61342;51.442;7.370;2023-03-14T01:16:42;97597.28;;;12.91;83.25
71239;BME280;61342;51.442;7.370;2023-03-14T01:17:43;97618.53;;;12.86;83.18
71239;BME280;61342;51.442;7.370;2023-03-14T01:18:45;97622.94;;;12.87;83.84
71239;BME280;61342;51.442;7.370;2023-03-14T01:19:45;97641.59;;;12.86;83.87
71239;BME280;61342;51.442;7.370;2023-03-14T01:20:45;97634.91;;;12.84;84.63
71239;BME280;61342;51.442;7.370;2023-03-14T01:21:46;97633.97;;;12.81;85.20
71239;BME280;61342;51.442;7.370;2023-03-14T01:22:46;97629.91;;;12.75;85.78
71239;BME280;61342;51.442;7.370;2023-03-14T01:23:47;97627.63;;;12.73;85.86
71239;BME280;61342;51.442;7.370;2023-03-14T01:24:48;97620.19;;;12.70;85.84
71239;BME280;61342;51.442;7.370;2023-03-14T01:25:48;97624.13;;;12.65;86.12
71239;BME280;61342;51.442;7.370;2023-03-14T01:26:49;97625.38;;;12.63;86.74
71239;BME280;61342;51.442;7.370;2023-03-14T01:27:49;97615.06;;;12.60;87.02
71239;BME280;61342;51.442;7.370;2023-03-14T01:28:51;97606.88;;;12.56;86.83
71239;BME280;61342;51.442;7.370;2023-03-14T01:29:52;97602.78;;;12.50;87.17
71239;BME280;61342;51.442;7.370;2023-03-14T01:30:52;97607.63;;;12.47;87.47
71239;BME280;61342;51.442;7.370;2023-03-14T01:31:52;97613.84;;;12.44;87.71
71239;BME280;61342;51.442;7.370;2023-03-14T01:32:53;97619.31;;;12.40;87.75
71239;BME280;61342;51.442;7.370;2023-03-14T01:33:53;97639.31;;;12.38;88.04
71239;BME280;61342;51.442;7.370;2023-03-14T01:34:54;97620.19;;;12.33;88.22
71239;BME280;61342;51.442;7.370;2023-03-14T01:35:54;97611.25;;;12.29;88.34
71239;BME280;61342;51.442;7.370;2023-03-14T01:36:54;97618.09;;;12.24;88.44
71239;BME280;61342;51.442;7.370;2023-03-14T01:37:55;97610.66;;;12.21;88.43
71239;BME280;61342;51.442;7.370;2023-03-14T01:38:55;97608.69;;;12.14;88.32
71239;BME280;61342;51.442;7.370;2023-03-14T01:39:55;97612.31;;;12.14;89.01
71239;BME280;61342;51.442;7.370;2023-03-14T01:40:56;97601.88;;;12.09;89.03
71239;BME280;61342;51.442;7.370;2023-03-14T01:41:57;97595.81;;;12.06;89.22
71239;BME280;61342;51.442;7.370;2023-03-14T01:43:06;97588.81;;;11.99;89.45
71239;BME280;61342;51.442;7.370;2023-03-14T01:44:10;97598.94;;;12.00;89.97
71239;BME280;61342;51.442;7.370;2023-03-14T01:46:56;97579.41;;;11.89;90.21
71239;BME280;61342;51.442;7.370;2023-03-14T01:47:56;97582.88;;;11.88;90.22
71239;BME280;61342;51.442;7.370;2023-03-14T01:49:02;97574.69;;;11.84;90.15
71239;BME280;61342;51.442;7.370;2023-03-14T01:50:08;97571.50;;;11.80;90.62
71239;BME280;61342;51.442;7.370;2023-03-14T01:51:15;97571.38;;;11.78;90.74
71239;BME280;61342;51.442;7.370;2023-03-14T01:53:21;97574.53;;;11.73;91.29
71239;BME280;61342;51.442;7.370;2023-03-14T01:54:35;97577.41;;;11.73;91.17
71239;BME280;61342;51.442;7.370;2023-03-14T01:55:37;97571.97;;;11.67;91.46
71239;BME280;61342;51.442;7.370;2023-03-14T01:56:39;97568.47;;;11.69;91.87
71239;BME280;61342;51.442;7.370;2023-03-14T01:57:44;97568.78;;;11.63;91.62
71239;BME280;61342;51.442;7.370;2023-03-14T01:58:48;97567.25;;;11.62;92.12
71239;BME280;61342;51.442;7.370;2023-03-14T01:59:58;97569.94;;;11.60;92.34
71239;BME280;61342;51.442;7.370;2023-03-14T02:01:01;97574.34;;;11.61;92.57
71239;BME280;61342;51.442;7.370;2023-03-14T02:02:04;97569.81;;;11.58;92.52
71239;BME280;61342;51.442;7.370;2023-03-14T02:03:12;97571.78;;;11.56;92.96
71239;BME280;61342;51.442;7.370;2023-03-14T02:04:15;97567.97;;;11.53;93.04
71239;BME280;61342;51.442;7.370;2023-03-14T02:05:19;97571.47;;;11.52;93.31
71239;BME280;61342;51.442;7.370;2023-03-14T02:06:31;97560.97;;;11.47;93.29
71239;BME280;61342;51.442;7.370;2023-03-14T02:07:39;97565.19;;;11.46;93.36
71239;BME280;61342;51.442;7.370;2023-03-14T02:08:42;97550.81;;;11.46;93.65
71239;BME280;61342;51.442;7.370;2023-03-14T02:09:44;97556.84;;;11.41;93.77
71239;BME280;61342;51.442;7.370;2023-03-14T02:10:48;97548.22;;;11.41;93.91
71239;BME280;61342;51.442;7.370;2023-03-14T02:11:49;97548.81;;;11.39;94.25
71239;BME280;61342;51.442;7.370;2023-03-14T02:12:51;97545.34;;;11.41;94.42
71239;BME280;61342;51.442;7.370;2023-03-14T02:13:54;97551.53;;;11.37;94.30
71239;BME280;61342;51.442;7.370;2023-03-14T02:14:55;97544.91;;;11.35;94.71
71239;BME280;61342;51.442;7.370;2023-03-14T02:15:55;97555.00;;;11.36;94.85
71239;BME280;61342;51.442;7.370;2023-03-14T02:16:56;97551.38;;;11.35;94.66
71239;BME280;61342;51.442;7.370;2023-03-14T02:17:57;97561.38;;;11.34;95.03
71239;BME280;61342;51.442;7.370;2023-03-14T02:18:58;97578.63;;;11.34;95.12
71239;BME280;61342;51.442;7.370;2023-03-14T02:21:30;97561.66;;;11.29;95.21
71239;BME280;61342;51.442;7.370;2023-03-14T02:22:38;97572.41;;;11.28;95.25
71239;BME280;61342;51.442;7.370;2023-03-14T02:23:46;97563.78;;;11.28;95.48
71239;BME280;61342;51.442;7.370;2023-03-14T02:26:01;97564.22;;;11.25;95.72
71239;BME280;61342;51.442;7.370;2023-03-14T02:27:14;97555.59;;;11.25;95.82
71239;BME280;61342;51.442;7.370;2023-03-14T02:28:15;97553.47;;;11.25;95.83
71239;BME280;61342;51.442;7.370;2023-03-14T02:29:16;97560.59;;;11.24;95.90
71239;BME280;61342;51.442;7.370;2023-03-14T02:30:19;97561.94;;;11.23;95.59
71239;BME280;61342;51.442;7.370;2023-03-14T02:31:22;97562.09;;;11.25;96.11
71239;BME280;61342;51.442;7.370;2023-03-14T02:32:23;97564.81;;;11.23;96.40
71239;BME280;61342;51.442;7.370;2023-03-14T02:33:26;97542.84;;;11.18;96.40
71239;BME280;61342;51.442;7.370;2023-03-14T02:34:27;97556.94;;;11.24;96.48
71239;BME280;61342;51.442;7.370;2023-03-14T02:35:33;97557.72;;;11.24;96.52
71239;BME280;61342;51.442;7.370;2023-03-14T02:36:35;97558.47;;;11.25;96.50
71239;BME280;61342;51.442;7.370;2023-03-14T02:37:42;97551.19;;;11.24;96.67
71239;BME280;61342;51.442;7.370;2023-03-14T02:39:48;97549.09;;;11.24;96.86
71239;BME280;61342;51.442;7.370;2023-03-14T02:40:49;97556.94;;;11.24;96.86
71239;BME280;61342;51.442;7.370;2023-03-14T02:41:50;97559.06;;;11.23;97.07
71239;BME280;61342;51.442;7.370;2023-03-14T02:42:50;97550.44;;;11.23;96.86
71239;BME280;61342;51.442;7.370;2023-03-14T02:43:51;97555.59;;;11.25;96.84
71239;BME280;61342;51.442;7.370;2023-03-14T02:44:55;97555.59;;;11.25;96.98
71239;BME280;61342;51.442;7.370;2023-03-14T02:46:01;97562.88;;;11.26;97.17
71239;BME280;61342;51.442;7.370;2023-03-14T02:47:04;97556.19;;;11.23;97.10
71239;BME280;61342;51.442;7.370;2023-03-14T02:48:09;97552.72;;;11.25;97.20
71239;BME280;61342;51.442;7.370;2023-03-14T02:49:14;97556.94;;;11.24;96.98
71239;BME280;61342;51.442;7.370;2023-03-14T02:50:18;97559.06;;;11.23;97.48
71239;BME280;61342;51.442;7.370;2023-03-14T02:51:21;97556.94;;;11.24;97.55
71239;BME280;61342;51.442;7.370;2023-03-14T02:52:21;97552.56;;;11.23;97.48
71239;BME280;61342;51.442;7.370;2023-03-14T02:53:25;97548.19;;;11.22;97.63
71239;BME280;61342;51.442;7.370;2023-03-14T02:54:26;97551.19;;;11.24;97.72
71239;BME280;61342;51.442;7.370;2023-03-14T02:55:26;97560.00;;;11.26;97.52
71239;BME280;61342;51.442;7.370;2023-03-14T02:56:27;97557.88;;;11.26;97.78
71239;BME280;61342;51.442;7.370;2023-03-14T02:57:27;97551.38;;;11.26;97.84
71239;BME280;61342;51.442;7.370;2023-03-14T02:58:28;97555.75;;;11.27;97.90
71239;BME280;61342;51.442;7.370;2023-03-14T02:59:28;97555.16;;;11.28;97.96
71239;BME280;61342;51.442;7.370;2023-03-14T03:00:29;97552.88;;;11.27;97.94
71239;BME280;61342;51.442;7.370;2023-03-14T03:01:30;97549.25;;;11.26;97.99
71239;BME280;61342;51.442;7.370;2023-03-14T03:02:31;97549.84;;;11.25;97.82
71239;BME280;61342;51.442;7.370;2023-03-14T03:03:31;97552.88;;;11.27;98.08
71239;BME280;61342;51.442;7.370;2023-03-14T03:04:32;97551.38;;;11.26;97.78
71239;BME280;61342;51.442;7.370;2023-03-14T03:05:32;97548.63;;;11.28;98.16
71239;BME280;61342;51.442;7.370;2023-03-14T03:06:33;97552.28;;;11.28;98.02
71239;BME280;61342;51.442;7.370;2023-03-14T03:07:33;97553.03;;;11.29;98.04
71239;BME280;61342;51.442;7.370;2023-03-14T03:08:33;97546.53;;;11.28;97.95
71239;BME280;61342;51.442;7.370;2023-03-14T03:09:34;97549.25;;;11.26;98.08
71239;BME280;61342;51.442;7.370;2023-03-14T03:10:34;97545.75;;;11.28;98.00
71239;BME280;61342;51.442;7.370;2023-03-14T03:11:34;97545.00;;;11.27;98.01
71239;BME280;61342;51.442;7.370;2023-03-14T03:12:35;97536.38;;;11.27;97.94
71239;BME280;61342;51.442;7.370;2023-03-14T03:13:35;97545.75;;;11.28;98.28
71239;BME280;61342;51.442;7.370;2023-03-14T03:14:36;97534.25;;;11.28;97.86
71239;BME280;61342;51.442;7.370;2023-03-14T03:15:37;97532.91;;;11.29;98.09
71239;BME280;61342;51.442;7.370;2023-03-14T03:16:38;97533.66;;;11.29;97.84
71239;BME280;61342;51.442;7.370;2023-03-14T03:17:38;97532.91;;;11.29;98.00
71239;BME280;61342;51.442;7.370;2023-03-14T03:18:38;97533.50;;;11.27;97.97
71239;BME280;61342;51.442;7.370;2023-03-14T03:19:39;97529.28;;;11.28;97.73
71239;BME280;61342;51.442;7.370;2023-03-14T03:20:39;97531.25;;;11.26;97.92
71239;BME280;61342;51.442;7.370;2023-03-14T03:21:39;97532.59;;;11.25;97.69
71239;BME280;61342;51.442;7.370;2023-03-14T03:22:40;97522.00;;;11.27;97.65
71239;BME280;61342;51.442;7.370;2023-03-14T03:23:40;97534.13;;;11.26;97.71
71239;BME280;61342;51.442;7.370;2023-03-14T03:24:40;97528.38;;;11.26;97.38
71239;BME280;61342;51.442;7.370;2023-03-14T03:25:41;97529.72;;;11.25;97.52
71239;BME280;61342;51.442;7.370;2023-03-14T03:26:41;97539.25;;;11.27;97.61
71239;BME280;61342;51.442;7.370;2023-03-14T03:27:42;97528.50;;;11.28;97.85
71239;BME280;61342;51.442;7.370;2023-03-14T03:28:42;97526.41;;;11.28;97.68
71239;BME280;61342;51.442;7.370;2023-03-14T03:29:43;97523.34;;;11.26;97.55
71239;BME280;61342;51.442;7.370;2023-03-14T03:30:44;97524.28;;;11.29;97.35
71239;BME280;61342;51.442;7.370;2023-03-14T03:31:44;97513.53;;;11.29;97.52
71239;BME280;61342;51.442;7.370;2023-03-14T03:32:47;97522.94;;;11.30;97.56
71239;BME280;61342;51.442;7.370;2023-03-14T03:33:47;97520.06;;;11.30;97.31
71239;BME280;61342;51.442;7.370;2023-03-14T03:34:48;97517.31;;;11.32;97.49
71239;BME280;61342;51.442;7.370;2023-03-14T03:35:49;97515.81;;;11.31;97.49
71239;BME280;61342;51.442;7.370;2023-03-14T03:36:50;97517.31;;;11.32;97.25
71239;BME280;61342;51.442;7.370;2023-03-14T03:37:50;97512.16;;;11.30;97.50
71239;BME280;61342;51.442;7.370;2023-03-14T03:38:50;97511.41;;;11.30;96.99
71239;BME280;61342;51.442;7.370;2023-03-14T03:39:51;97508.53;;;11.30;97.32
71239;BME280;61342;51.442;7.370;2023-03-14T03:40:52;97520.06;;;11.30;97.51
71239;BME280;61342;51.442;7.370;2023-03-14T03:41:52;97510.06;;;11.31;97.08
71239;BME280;61342;51.442;7.370;2023-03-14T03:42:52;97522.31;;;11.31;97.19
71239;BME280;61342;51.442;7.370;2023-03-14T03:43:53;97517.31;;;11.32;97.42
71239;BME280;61342;51.442;7.370;2023-03-14T03:44:54;97509.47;;;11.32;97.19
71239;BME280;61342;51.442;7.370;2023-03-14T03:45:54;97504.31;;;11.31;97.15
71239;BME280;61342;51.442;7.370;2023-03-14T03:46:55;97517.31;;;11.32;97.26
71239;BME280;61342;51.442;7.370;2023-03-14T03:47:55;97510.81;;;11.31;96.86
71239;BME280;61342;51.442;7.370;2023-03-14T03:48:56;97514.44;;;11.32;97.07
71239;BME280;61342;51.442;7.370;2023-03-14T03:49:57;97504.75;;;11.27;97.03
71239;BME280;61342;51.442;7.370;2023-03-14T03:50:57;97515.66;;;11.29;96.86
71239;BME280;61342;51.442;7.370;2023-03-14T03:51:58;97520.19;;;11.32;97.19
71239;BME280;61342;51.442;7.370;2023-03-14T03:52:59;97506.28;;;11.28;96.90
71239;BME280;61342;51.442;7.370;2023-03-14T03:53:59;97519.44;;;11.31;96.90
71239;BME280;61342;51.442;7.370;2023-03-14T03:54:59;97512.03;;;11.28;96.93
71239;BME280;61342;51.442;7.370;2023-03-14T03:56:00;97515.22;;;11.32;96.96
71239;BME280;61342;51.442;7.370;2023-03-14T03:57:01;97512.34;;;11.32;96.97
71239;BME280;61342;51.442;7.370;2023-03-14T03:58:01;97505.66;;;11.30;96.96
71239;BME280;61342;51.442;7.370;2023-03-14T03:59:02;97514.28;;;11.30;96.92
71239;BME280;61342;51.442;7.370;2023-03-14T04:00:04;97513.84;;;11.33;96.99
71239;BME280;61342;51.442;7.370;2023-03-14T04:01:06;97521.72;;;11.33;97.01
71239;BME280;61342;51.442;7.370;2023-03-14T04:02:09;97529.59;;;11.32;96.92
71239;BME280;61342;51.442;7.370;2023-03-14T04:03:09;97527.31;;;11.31;97.01
71239;BME280;61342;51.442;7.370;2023-03-14T04:04:10;97525.94;;;11.32;97.15
71239;BME280;61342;51.442;7.370;2023-03-14T04:05:10;97525.94;;;11.32;97.15
71239;BME280;61342;51.442;7.370;2023-03-14T04:06:12;97520.19;;;11.32;97.46
71239;BME280;61342;51.442;7.370;2023-03-14T04:07:13;97521.56;;;11.31;97.48
71239;BME280;61342;51.442;7.370;2023-03-14T04:08:14;97532.28;;;11.30;97.77
71239;BME280;61342;51.442;7.370;2023-03-14T04:09:15;97522.31;;;11.31;97.23
71239;BME280;61342;51.442;7.370;2023-03-14T04:10:15;97516.41;;;11.29;97.67
71239;BME280;61342;51.442;7.370;2023-03-14T04:11:16;97512.47;;;11.25;97.86
71239;BME280;61342;51.442;7.370;2023-03-14T04:12:16;97505.34;;;11.26;98.02
71239;BME280;61342;51.442;7.370;2023-03-14T04:13:16;97502.47;;;11.26;98.24
71239;BME280;61342;51.442;7.370;2023-03-14T04:14:17;97521.09;;;11.25;98.25
71239;BME280;61342;51.442;7.370;2023-03-14T04:15:17;97496.09;;;11.18;98.64
71239;BME280;61342;51.442;7.370;2023-03-14T04:16:21;97510.94;;;11.24;98.46
71239;BME280;61342;51.442;7.370;2023-03-14T04:17:22;97500.03;;;11.22;98.45
71239;BME280;61342;51.442;7.370;2023-03-14T04:18:23;97518.06;;;11.23;98.64
71239;BME280;61342;51.442;7.370;2023-03-14T04:19:26;97507.75;;;11.20;98.59
71239;BME280;61342;51.442;7.370;2023-03-14T04:20:26;97489.56;;;11.17;98.82
71239;BME280;61342;51.442;7.370;2023-03-14T04:21:27;97507.59;;;11.18;98.91
71239;BME280;61342;51.442;7.370;2023-03-14T04:22:27;97511.66;;;11.15;98.61
71239;BME280;61342;51.442;7.370;2023-03-14T04:23:28;97505.34;;;11.16;98.63
71239;BME280;61342;51.442;7.370;2023-03-14T04:24:28;97503.81;;;11.15;98.52
71239;BME280;61342;51.442;7.370;2023-03-14T04:25:28;97495.63;;;11.12;98.67
71239;BME280;61342;51.442;7.370;2023-03-14T04:26:29;97496.97;;;11.11;98.58
71239;BME280;61342;51.442;7.370;2023-03-14T04:27:29;97489.72;;;11.10;98.38
71239;BME280;61342;51.442;7.370;2023-03-14T04:28:29;97496.34;;;11.03;98.34
71239;BME280;61342;51.442;7.370;2023-03-14T04:29:30;97517.56;;;11.07;98.27
71239;BME280;61342;51.442;7.370;2023-03-14T04:30:30;97508.16;;;11.07;98.51
71239;BME280;61342;51.442;7.370;2023-03-14T04:31:31;97512.41;;;11.06;98.34
71239;BME280;61342;51.442;7.370;2023-03-14T04:32:31;97510.88;;;11.05;98.52
71239;BME280;61342;51.442;7.370;2023-03-14T04:33:31;97528.13;;;11.05;98.62
71239;BME280;61342;51.442;7.370;2023-03-14T04:34:32;97522.06;;;11.01;98.63
71239;BME280;61342;51.442;7.370;2023-03-14T04:35:33;97507.69;;;11.01;98.82
71239;BME280;61342;51.442;7.370;2023-03-14T04:36:33;97511.31;;;11.01;99.04
71239;BME280;61342;51.442;7.370;2023-03-14T04:37:33;97513.28;;;10.99;99.13
71239;BME280;61342;51.442;7.370;2023-03-14T04:38:34;97502.22;;;10.95;99.36
71239;BME280;61342;51.442;7.370;2023-03-14T04:39:34;97497.97;;;10.96;99.19
71239;BME280;61342;51.442;7.370;2023-03-14T04:40:39;97501.47;;;10.95;99.35
71239;BME280;61342;51.442;7.370;2023-03-14T04:41:40;97501.13;;;10.91;99.74
71239;BME280;61342;51.442;7.370;2023-03-14T04:42:40;97501.31;;;10.93;99.81
71239;BME280;61342;51.442;7.370;2023-03-14T04:43:41;97497.66;;;10.92;99.85
71239;BME280;61342;51.442;7.370;2023-03-14T04:44:41;97501.75;;;10.90;100.00
71239;BME280;61342;51.442;7.370;2023-03-14T04:45:43;97500.41;;;10.91;100.00
71239;BME280;61342;51.442;7.370;2023-03-14T04:46:43;97504.63;;;10.90;100.00
71239;BME280;61342;51.442;7.370;2023-03-14T04:47:44;97501.75;;;10.90;100.00
71239;BME280;61342;51.442;7.370;2023-03-14T04:48:44;97511.13;;;10.90;100.00
71239;BME280;61342;51.442;7.370;2023-03-14T04:49:45;97509.63;;;10.89;100.00
71239;BME280;61342;51.442;7.370;2023-03-14T04:50:46;97495.25;;;10.89;100.00
71239;BME280;61342;51.442;7.370;2023-03-14T04:51:47;97489.50;;;10.89;100.00
71239;BME280;61342;51.442;7.370;2023-03-14T04:52:48;97499.47;;;10.88;100.00
71239;BME280;61342;51.442;7.370;2023-03-14T04:53:48;97492.38;;;10.89;100.00
71239;BME280;61342;51.442;7.370;2023-03-14T04:54:48;97480.09;;;10.89;100.00
71239;BME280;61342;51.442;7.370;2023-03-14T04:55:50;97482.22;;;10.88;100.00
71239;BME280;61342;51.442;7.370;2023-03-14T04:56:51;97466.94;;;10.86;100.00
71239;BME280;61342;51.442;7.370;2023-03-14T04:57:51;97463.31;;;10.85;100.00
71239;BME280;61342;51.442;7.370;2023-03-14T04:58:52;97467.88;;;10.88;100.00
71239;BME280;61342;51.442;7.370;2023-03-14T04:59:52;97472.25;;;10.89;100.00
71239;BME280;61342;51.442;7.370;2023-03-14T05:00:52;97467.88;;;10.88;100.00
71239;BME280;61342;51.442;7.370;2023-03-14T05:01:53;97479.34;;;10.88;100.00
71239;BME280;61342;51.442;7.370;2023-03-14T05:02:53;97472.25;;;10.89;100.00
71239;BME280;61342;51.442;7.370;2023-03-14T05:04:08;97472.88;;;10.88;100.00
71239;BME280;61342;51.442;7.370;2023-03-14T05:05:21;97469.38;;;10.89;100.00
71239;BME280;61342;51.442;7.370;2023-03-14T05:06:34;97473.59;;;10.88;100.00
71239;BME280;61342;51.442;7.370;2023-03-14T05:07:51;97459.22;;;10.79;100.00
71239;BME280;61342;51.442;7.370;2023-03-14T05:09:19;97462.72;;;10.87;100.00
71239;BME280;61342;51.442;7.370;2023-03-14T05:12:06;97480.56;;;10.85;100.00
71239;BME280;61342;51.442;7.370;2023-03-14T05:13:11;97474.63;;;10.83;100.00
71239;BME280;61342;51.442;7.370;2023-03-14T05:14:53;97475.25;;;10.82;100.00
71239;BME280;61342;51.442;7.370;2023-03-14T05:15:53;97458.13;;;10.74;100.00
71239;BME280;61342;51.442;7.370;2023-03-14T05:17:00;97462.06;;;10.69;100.00
71239;BME280;61342;51.442;7.370;2023-03-14T05:18:12;97480.38;;;10.83;100.00
71239;BME280;61342;51.442;7.370;2023-03-14T05:19:18;97477.47;;;10.74;100.00
71239;BME280;61342;51.442;7.370;2023-03-14T05:20:29;97473.72;;;10.81;100.00
71239;BME280;61342;51.442;7.370;2023-03-14T05:21:53;97446.16;;;10.68;100.00
71239;BME280;61342;51.442;7.370;2023-03-14T05:22:54;97473.72;;;10.81;100.00
71239;BME280;61342;51.442;7.370;2023-03-14T05:24:00;97471.63;;;10.81;100.00
71239;BME280;61342;51.442;7.370;2023-03-14T05:25:03;97470.81;;;10.71;100.00
71239;BME280;61342;51.442;7.370;2023-03-14T05:26:07;97460.69;;;10.70;100.00
71239;BME280;61342;51.442;7.370;2023-03-14T05:27:08;97455.84;;;10.73;100.00
71239;BME280;61342;51.442;7.370;2023-03-14T05:28:17;97439.94;;;10.62;100.00
71239;BME280;61342;51.442;7.370;2023-03-14T05:29:24;97463.13;;;10.74;100.00
71239;BME280;61342;51.442;7.370;2023-03-14T05:30:27;97454.03;;;10.68;100.00
71239;BME280;61342;51.442;7.370;2023-03-14T05:31:35;97435.28;;;10.67;100.00
71239;BME280;61342;51.442;7.370;2023-03-14T05:35:44;97455.06;;;10.63;100.00
71239;BME280;61342;51.442;7.370;2023-03-14T05:36:47;97433.22;;;10.50;100.00
71239;BME280;61342;51.442;7.370;2023-03-14T05:37:51;97421.28;;;10.44;100.00
71239;BME280;61342;51.442;7.370;2023-03-14T05:38:52;97450.31;;;10.48;100.00